createdAt,value
2018-06-04T00:00:36.557Z,46.77
2018-06-04T00:03:06.405Z,46.03
2018-06-04T00:05:36.205Z,45.90
2018-06-04T00:08:06.271Z,43.87
2018-06-04T00:10:35.963Z,42.03
2018-06-04T00:13:05.910Z,44.27
2018-06-04T00:15:35.751Z,43.70
2018-06-04T00:18:05.721Z,43.27
2018-06-04T00:20:35.745Z,43.63
2018-06-04T00:23:05.555Z,44.50
2018-06-04T00:25:35.384Z,42.17
2018-06-04T00:28:05.139Z,41.10
2018-06-04T00:30:35.121Z,41.90
2018-06-04T00:33:04.727Z,47.87
2018-06-04T00:35:34.575Z,48.20
2018-06-04T00:38:04.253Z,49.00
2018-06-04T00:40:34.074Z,50.70
2018-06-04T00:43:03.619Z,51.37
2018-06-04T00:45:33.497Z,53.67
2018-06-04T00:48:03.334Z,50.97
2018-06-04T00:50:34.336Z,51.87
2018-06-04T00:53:03.977Z,56.43
2018-06-04T00:55:39.379Z,60.77
2018-06-04T00:58:09.350Z,66.30
2018-06-04T01:00:39.027Z,65.57
2018-06-04T01:03:09.089Z,69.37
2018-06-04T01:05:38.761Z,63.93
2018-06-04T01:08:08.725Z,64.70
2018-06-04T01:10:38.782Z,64.13
2018-06-04T01:13:08.743Z,67.83
2018-06-04T01:15:38.953Z,67.40
2018-06-04T01:18:08.736Z,63.40
2018-06-04T01:20:38.764Z,66.27
2018-06-04T01:23:08.856Z,69.40
2018-06-04T01:25:38.968Z,72.03
2018-06-04T01:28:08.795Z,74.70
2018-06-04T01:30:38.486Z,77.77
2018-06-04T01:33:08.381Z,78.67
2018-06-04T01:35:38.429Z,80.17
2018-06-04T01:38:08.253Z,80.43
2018-06-04T01:40:38.214Z,81.90
2018-06-04T01:43:08.006Z,80.53
2018-06-04T01:45:38.643Z,83.07
2018-06-04T01:48:08.875Z,83.43
2018-06-04T01:50:39.776Z,87.50
2018-06-04T01:53:09.574Z,82.30
2018-06-04T01:55:39.384Z,90.53
2018-06-04T01:58:08.889Z,88.30
2018-06-04T02:00:39.099Z,94.00
2018-06-04T02:03:09.301Z,95.50
2018-06-04T02:05:40.239Z,85.03
2018-06-04T02:08:09.971Z,87.97
2018-06-04T02:10:39.862Z,90.67
2018-06-04T02:13:09.776Z,86.70
2018-06-04T02:15:39.493Z,86.77
2018-06-04T02:18:09.369Z,85.50
2018-06-04T02:20:39.448Z,88.77
2018-06-04T02:23:09.359Z,86.27
2018-06-04T02:25:39.239Z,85.40
2018-06-04T02:28:09.198Z,87.93
2018-06-04T02:30:38.994Z,90.47
2018-06-04T02:33:08.503Z,98.77
2018-06-04T02:35:38.353Z,91.00
2018-06-04T02:38:08.222Z,90.87
2018-06-04T02:40:37.862Z,86.57
2018-06-04T02:43:07.797Z,82.67
2018-06-04T02:45:38.076Z,86.87
2018-06-04T02:48:08.115Z,90.90
2018-06-04T02:50:37.926Z,96.27
2018-06-04T02:53:08.828Z,99.27
2018-06-04T02:55:38.832Z,101.90
2018-06-04T02:58:08.550Z,90.33
2018-06-04T03:00:38.533Z,90.37
2018-06-04T03:03:08.480Z,89.43
2018-06-04T03:05:38.407Z,86.90
2018-06-04T03:08:08.275Z,80.63
2018-06-04T03:10:38.137Z,86.77
2018-06-04T03:13:07.873Z,75.73
2018-06-04T03:15:37.639Z,83.23
2018-06-04T03:18:07.866Z,76.67
2018-06-04T03:20:37.946Z,74.40
2018-06-04T03:23:07.886Z,86.83
2018-06-04T03:25:37.737Z,87.70
2018-06-04T03:28:07.479Z,77.53
2018-06-04T03:30:37.391Z,72.67
2018-06-04T03:33:07.199Z,71.93
2018-06-04T03:35:37.061Z,72.50
2018-06-04T03:38:06.871Z,75.73
2018-06-04T03:40:36.786Z,77.23
2018-06-04T03:43:06.583Z,72.27
2018-06-04T03:45:36.344Z,73.13
2018-06-04T03:48:06.321Z,76.67
2018-06-04T03:50:36.318Z,64.23
2018-06-04T03:53:06.198Z,63.30
2018-06-04T03:55:36.959Z,66.80
2018-06-04T03:58:06.895Z,52.47
2018-06-04T04:00:36.788Z,51.07
2018-06-04T04:03:06.784Z,51.73
2018-06-04T04:05:36.613Z,48.43
2018-06-04T04:08:07.361Z,53.40
2018-06-04T04:10:37.263Z,51.63
2018-06-04T04:13:07.461Z,45.83
2018-06-04T04:15:37.461Z,51.77
2018-06-04T04:18:07.184Z,47.80
2018-06-04T04:20:41.142Z,49.40
2018-06-04T04:23:10.943Z,48.70
2018-06-04T04:25:40.614Z,48.80
2018-06-04T04:28:11.411Z,47.53
2018-06-04T04:30:41.150Z,43.37
2018-06-04T04:33:10.861Z,43.00
2018-06-04T04:35:40.789Z,43.23
2018-06-04T04:38:10.752Z,43.33
2018-06-04T04:40:40.434Z,44.93
2018-06-04T04:43:10.395Z,45.23
2018-06-04T04:45:40.066Z,44.87
2018-06-04T04:48:10.108Z,43.33
2018-06-04T04:50:40.020Z,43.23
2018-06-04T04:53:09.607Z,42.80
2018-06-04T04:55:40.326Z,42.73
2018-06-04T04:58:10.032Z,43.57
2018-06-04T05:00:39.811Z,42.07
2018-06-04T05:03:09.796Z,41.13
2018-06-04T05:05:39.599Z,42.40
2018-06-04T05:08:09.799Z,40.33
2018-06-04T05:10:39.578Z,39.83
2018-06-04T05:13:09.376Z,39.57
2018-06-04T05:15:39.066Z,39.33
2018-06-04T05:18:09.057Z,42.10
2018-06-04T05:20:39.848Z,38.83
2018-06-04T05:23:09.838Z,40.40
2018-06-04T05:25:39.823Z,39.27
2018-06-04T05:28:09.742Z,35.90
2018-06-04T05:30:39.812Z,35.93
2018-06-04T05:33:09.621Z,33.97
2018-06-04T05:35:39.468Z,31.97
2018-06-04T05:38:09.403Z,32.10
2018-06-04T05:40:39.083Z,31.60
2018-06-04T05:43:08.868Z,28.80
2018-06-04T05:45:38.644Z,30.30
2018-06-04T05:48:08.579Z,28.67
2018-06-04T05:50:38.369Z,27.43
2018-06-04T05:53:08.062Z,28.03
2018-06-04T05:55:37.890Z,26.57
2018-06-04T05:58:08.561Z,27.50
2018-06-04T06:00:38.231Z,28.40
2018-06-04T06:03:07.920Z,26.40
2018-06-04T06:05:37.584Z,24.73
2018-06-04T06:08:07.505Z,25.73
2018-06-04T06:10:37.427Z,25.53
2018-06-04T06:13:07.245Z,25.83
2018-06-04T06:15:37.061Z,24.37
2018-06-04T06:18:06.796Z,25.73
2018-06-04T06:20:36.598Z,26.07
2018-06-04T06:23:06.318Z,28.50
2018-06-04T06:25:36.119Z,27.57
2018-06-04T06:28:06.092Z,28.10
2018-06-04T06:30:35.782Z,26.73
2018-06-04T06:33:05.683Z,25.87
2018-06-04T06:35:35.686Z,25.43
2018-06-04T06:38:05.755Z,24.97
2018-06-04T06:40:35.517Z,24.83
2018-06-04T06:43:05.341Z,24.60
2018-06-04T06:45:35.329Z,25.20
2018-06-04T06:48:05.165Z,25.03
2018-06-04T06:50:35.290Z,25.70
2018-06-04T06:53:05.200Z,25.50
2018-06-04T06:55:34.850Z,25.20
2018-06-04T06:58:04.931Z,24.63
2018-06-04T07:00:35.329Z,24.37
2018-06-04T07:03:05.362Z,25.13
2018-06-04T07:05:35.125Z,26.43
2018-06-04T07:08:04.912Z,30.52
2018-06-04T07:10:34.762Z,29.47
2018-06-04T07:13:04.660Z,28.80
2018-06-04T07:15:34.595Z,29.30
2018-06-04T07:18:04.460Z,30.47
2018-06-04T07:20:34.301Z,29.30
2018-06-04T07:23:04.160Z,26.83
2018-06-04T07:25:34.162Z,28.73
2018-06-04T07:28:03.839Z,29.23
2018-06-04T07:30:33.708Z,27.77
2018-06-04T07:33:03.877Z,28.03
2018-06-04T07:35:34.026Z,27.57
2018-06-04T07:38:03.888Z,26.03
2018-06-04T07:40:34.239Z,28.03
2018-06-04T07:43:03.938Z,26.00
2018-06-04T07:45:33.767Z,24.60
2018-06-04T07:48:03.716Z,25.13
2018-06-04T07:50:33.846Z,24.07
2018-06-04T07:53:03.510Z,23.87
2018-06-04T07:55:33.181Z,25.07
2018-06-04T07:58:02.895Z,23.97
2018-06-04T08:00:32.866Z,24.83
2018-06-04T08:03:02.843Z,21.97
2018-06-04T08:05:32.505Z,21.30
2018-06-04T08:08:02.104Z,20.33
2018-06-04T08:10:32.208Z,20.80
2018-06-04T08:13:01.960Z,21.10
2018-06-04T08:15:31.810Z,21.30
2018-06-04T08:18:01.716Z,20.83
2018-06-04T08:20:31.720Z,19.40
2018-06-04T08:23:01.572Z,20.77
2018-06-04T08:25:31.371Z,21.63
2018-06-04T08:28:01.048Z,20.23
2018-06-04T08:30:31.936Z,19.73
2018-06-04T08:33:01.998Z,19.63
2018-06-04T08:35:32.037Z,19.30
2018-06-04T08:38:01.793Z,19.77
2018-06-04T08:40:31.981Z,18.80
2018-06-04T08:43:02.289Z,19.37
2018-06-04T08:45:32.178Z,17.83
2018-06-04T08:48:02.110Z,17.10
2018-06-04T08:50:31.858Z,17.27
2018-06-04T08:53:01.504Z,16.07
2018-06-04T08:55:31.221Z,17.10
2018-06-04T08:58:00.786Z,17.90
2018-06-04T09:00:30.861Z,16.30
2018-06-04T09:03:00.706Z,17.50
2018-06-04T09:05:30.784Z,17.10
2018-06-04T09:08:00.499Z,17.00
2018-06-04T09:10:30.217Z,18.00
2018-06-04T09:13:00.092Z,18.07
2018-06-04T09:15:30.159Z,16.10
2018-06-04T09:17:59.841Z,16.40
2018-06-04T09:20:29.914Z,17.50
2018-06-04T09:23:00.962Z,17.03
2018-06-04T09:25:30.794Z,17.43
2018-06-04T09:28:00.498Z,17.47
2018-06-04T09:30:30.321Z,16.57
2018-06-04T09:33:00.073Z,15.27
2018-06-04T09:35:30.038Z,16.37
2018-06-04T09:37:59.986Z,16.30
2018-06-04T09:40:29.804Z,15.10
2018-06-04T09:42:59.661Z,14.53
2018-06-04T09:45:29.601Z,15.03
2018-06-04T09:47:59.468Z,14.30
2018-06-04T09:50:30.425Z,14.53
2018-06-04T09:53:00.049Z,13.83
2018-06-04T09:55:29.829Z,13.47
2018-06-04T09:58:00.085Z,13.00
2018-06-04T10:00:39.191Z,12.17
2018-06-04T10:03:09.151Z,11.43
2018-06-04T10:05:39.938Z,11.73
2018-06-04T10:08:10.011Z,11.77
2018-06-04T10:10:40.028Z,12.17
2018-06-04T10:13:09.738Z,11.47
2018-06-04T10:15:40.137Z,11.60
2018-06-04T10:18:10.205Z,11.03
2018-06-04T10:20:39.829Z,10.97
2018-06-04T10:23:09.827Z,10.57
2018-06-04T10:25:39.661Z,10.70
2018-06-04T10:28:09.575Z,10.77
2018-06-04T10:30:39.615Z,10.93
2018-06-04T10:33:09.469Z,10.90
2018-06-04T10:35:39.167Z,10.47
2018-06-04T10:38:09.132Z,9.60
2018-06-04T10:40:38.923Z,10.70
2018-06-04T10:43:08.589Z,10.17
2018-06-04T10:45:38.601Z,10.30
2018-06-04T10:48:08.642Z,11.50
2018-06-04T10:50:38.602Z,10.30
2018-06-04T10:53:08.417Z,11.33
2018-06-04T10:55:38.463Z,9.67
2018-06-04T10:58:08.233Z,9.83
2018-06-04T11:00:38.042Z,10.07
2018-06-04T11:03:07.900Z,10.17
2018-06-04T11:05:37.601Z,10.17
2018-06-04T11:08:07.539Z,10.30
2018-06-04T11:10:37.408Z,10.20
2018-06-04T11:13:07.129Z,8.73
2018-06-04T11:15:36.999Z,9.40
2018-06-04T11:18:06.838Z,8.13
2018-06-04T11:20:36.689Z,7.60
2018-06-04T11:23:06.565Z,9.00
2018-06-04T11:25:36.342Z,8.73
2018-06-04T11:28:06.015Z,7.33
2018-06-04T11:30:35.907Z,8.33
2018-06-04T11:33:06.648Z,6.92
2018-06-04T11:35:36.545Z,7.17
2018-06-04T11:38:06.449Z,7.97
2018-06-04T11:40:36.082Z,8.45
2018-06-04T11:43:05.920Z,8.68
2018-06-04T11:45:35.805Z,8.30
2018-06-04T11:48:05.908Z,7.67
2018-06-04T11:50:35.872Z,8.23
2018-06-04T11:53:05.804Z,7.97
2018-06-04T11:55:35.952Z,7.00
2018-06-04T11:58:06.026Z,7.95
2018-06-04T12:00:35.882Z,6.92
2018-06-04T12:03:05.906Z,6.80
2018-06-04T12:05:35.581Z,7.33
2018-06-04T12:08:05.316Z,7.12
2018-06-04T12:53:00.196Z,7.00
2018-06-04T12:55:30.002Z,6.12
2018-06-04T12:58:01.057Z,6.65
2018-06-04T13:00:30.948Z,5.75
2018-06-04T13:03:00.732Z,5.95
2018-06-04T13:05:30.737Z,6.35
2018-06-04T13:08:00.316Z,6.17
2018-06-04T13:10:30.039Z,6.35
2018-06-04T13:13:00.310Z,5.97
2018-06-04T13:15:30.125Z,6.00
2018-06-04T13:18:00.058Z,6.45
2018-06-04T13:20:29.880Z,6.42
2018-06-04T13:22:59.756Z,6.25
2018-06-04T13:25:29.750Z,6.28
2018-06-04T13:27:59.567Z,6.65
2018-06-04T13:30:29.393Z,6.33
2018-06-04T13:32:59.058Z,6.40
2018-06-04T13:35:28.700Z,6.80
2018-06-04T13:37:58.739Z,6.37
2018-06-04T13:40:28.608Z,6.55
2018-06-04T13:42:58.785Z,6.17
2018-06-04T13:45:28.585Z,6.35
2018-06-04T13:47:58.374Z,6.33
2018-06-04T13:50:28.486Z,6.15
2018-06-04T13:52:58.343Z,6.40
2018-06-04T13:55:28.826Z,6.12
2018-06-04T13:57:58.834Z,6.25
2018-06-04T14:00:28.764Z,6.35
2018-06-04T14:02:59.679Z,5.85
2018-06-04T14:05:29.489Z,6.20
2018-06-04T14:07:59.220Z,6.03
2018-06-04T14:10:29.178Z,5.90
2018-06-04T14:12:59.152Z,6.03
2018-06-04T14:15:29.033Z,5.95
2018-06-04T14:17:58.883Z,5.70
2018-06-04T14:20:28.656Z,6.30
2018-06-04T14:22:58.418Z,5.55
2018-06-04T14:25:28.245Z,5.62
2018-06-04T14:27:58.084Z,5.85
2018-06-04T14:30:27.711Z,5.83
2018-06-04T14:32:57.518Z,6.12
2018-06-04T14:35:27.516Z,5.40
2018-06-04T14:37:57.250Z,5.53
2018-06-04T14:40:27.459Z,4.92
2018-06-04T14:42:57.427Z,8.43
2018-06-04T14:45:27.480Z,14.75
2018-06-04T14:47:57.364Z,6.30
2018-06-04T14:50:27.180Z,5.60
2018-06-04T14:52:57.037Z,5.37
2018-06-04T14:55:27.203Z,5.17
2018-06-04T14:57:57.312Z,5.20
2018-06-04T15:00:27.509Z,5.40
2018-06-04T15:02:57.268Z,5.17
2018-06-04T15:05:27.208Z,5.58
2018-06-04T15:07:57.473Z,5.17
2018-06-04T15:10:27.539Z,5.20
2018-06-04T15:12:57.543Z,5.40
2018-06-04T15:15:27.514Z,5.20
2018-06-04T15:17:58.354Z,5.60
2018-06-04T15:20:28.155Z,5.10
2018-06-04T15:22:57.982Z,5.67
2018-06-04T15:25:27.626Z,4.87
2018-06-04T15:27:58.585Z,5.30
2018-06-04T15:30:28.356Z,5.03
2018-06-04T15:32:58.276Z,5.28
2018-06-04T15:35:28.026Z,4.90
2018-06-04T15:37:57.999Z,5.20
2018-06-04T15:40:28.552Z,5.70
2018-06-04T15:42:58.640Z,4.78
2018-06-04T15:45:31.632Z,4.78
2018-06-04T15:48:01.406Z,4.70
2018-06-04T15:50:31.385Z,4.62
2018-06-04T15:53:01.287Z,4.58
2018-06-04T15:55:32.219Z,4.47
2018-06-04T15:58:02.220Z,4.42
2018-06-04T16:00:31.805Z,4.90
2018-06-04T16:03:01.573Z,4.35
2018-06-04T16:05:31.548Z,4.50
2018-06-04T16:08:01.401Z,3.95
2018-06-04T16:10:31.353Z,4.10
2018-06-04T16:13:01.320Z,3.70
2018-06-04T16:15:31.161Z,3.83
2018-06-04T16:18:01.162Z,3.95
2018-06-04T16:20:31.115Z,3.95
2018-06-04T16:23:01.324Z,4.00
2018-06-04T16:25:31.077Z,3.75
2018-06-04T16:28:01.013Z,3.98
2018-06-04T16:30:30.989Z,3.75
2018-06-04T16:33:00.817Z,4.10
2018-06-04T16:35:30.864Z,4.10
2018-06-04T16:38:01.804Z,3.98
2018-06-04T16:40:32.132Z,3.92
2018-06-04T16:43:03.193Z,4.12
2018-06-04T16:45:33.405Z,3.90
2018-06-04T16:48:04.263Z,4.03
2018-06-04T16:50:34.350Z,3.92
2018-06-04T16:53:04.216Z,3.98
2018-06-04T16:55:36.199Z,4.03
2018-06-04T16:58:07.380Z,4.10
2018-06-04T17:00:37.231Z,4.30
2018-06-04T17:03:07.357Z,4.12
2018-06-04T17:05:37.233Z,4.78
2018-06-04T17:08:07.325Z,4.50
2018-06-04T17:10:37.122Z,4.20
2018-06-04T17:13:06.857Z,4.30
2018-06-04T17:15:36.835Z,4.30
2018-06-04T17:18:06.703Z,5.00
2018-06-04T17:20:36.526Z,4.53
2018-06-04T17:23:06.263Z,4.50
2018-06-04T17:25:35.950Z,4.90
2018-06-04T17:28:06.050Z,4.70
2018-06-04T17:30:35.769Z,5.37
2018-06-04T17:33:05.589Z,5.42
2018-06-04T17:35:35.553Z,5.83
2018-06-04T17:38:12.115Z,5.28
2018-06-04T17:40:42.583Z,5.60
2018-06-04T17:43:12.550Z,5.65
2018-06-04T17:45:42.520Z,6.37
2018-06-04T17:48:12.373Z,5.72
2018-06-04T17:50:42.213Z,6.80
2018-06-04T17:53:12.129Z,6.50
2018-06-04T17:55:41.924Z,6.93
2018-06-04T17:58:12.370Z,6.93
2018-06-04T18:00:42.370Z,6.83
2018-06-04T18:03:12.287Z,7.53
2018-06-04T18:05:42.089Z,8.07
2018-06-04T18:08:12.143Z,8.23
2018-06-04T18:10:42.103Z,9.13
2018-06-04T18:13:12.128Z,8.23
2018-06-04T18:15:42.248Z,8.40
2018-06-04T18:18:12.255Z,8.70
2018-06-04T18:20:42.257Z,8.77
2018-06-04T18:23:12.221Z,8.97
2018-06-04T18:25:42.119Z,8.43
2018-06-04T18:28:12.102Z,8.93
2018-06-04T18:30:41.939Z,8.60
2018-06-04T18:33:11.736Z,8.90
2018-06-04T18:35:41.697Z,9.47
2018-06-04T18:38:11.582Z,9.40
2018-06-04T18:40:42.212Z,9.30
2018-06-04T18:43:12.202Z,9.33
2018-06-04T18:45:41.925Z,9.10
2018-06-04T18:48:11.959Z,8.50
2018-06-04T18:50:41.748Z,8.80
2018-06-04T18:53:11.463Z,8.57
2018-06-04T18:55:41.524Z,8.77
2018-06-04T18:58:11.111Z,8.90
2018-06-04T19:00:41.251Z,10.70
2018-06-04T19:03:11.371Z,11.53
2018-06-04T19:05:41.441Z,12.10
2018-06-04T19:08:11.534Z,12.30
2018-06-04T19:10:41.373Z,11.87
2018-06-04T19:13:11.313Z,11.23
2018-06-04T19:15:41.128Z,10.17
2018-06-04T19:18:11.328Z,10.07
2018-06-04T19:20:41.509Z,10.87
2018-06-04T19:23:11.566Z,13.23
2018-06-04T19:25:41.741Z,14.90
2018-06-04T19:28:11.773Z,15.20
2018-06-04T19:30:41.719Z,16.10
2018-06-04T19:33:11.594Z,17.80
2018-06-04T19:35:41.424Z,18.67
2018-06-04T19:38:11.311Z,19.00
2018-06-04T19:40:41.476Z,18.85
2018-06-04T19:43:11.682Z,19.13
2018-06-04T19:45:41.880Z,22.97
2018-06-04T19:48:12.970Z,21.40
2018-06-04T19:50:42.997Z,21.33
2018-06-04T19:53:13.007Z,20.93
2018-06-04T19:55:42.618Z,19.27
2018-06-04T19:58:12.532Z,17.30
2018-06-04T20:00:42.679Z,17.87
2018-06-04T20:03:12.688Z,17.43
2018-06-04T20:05:42.581Z,16.63
2018-06-04T20:08:12.512Z,17.30
2018-06-04T20:10:42.484Z,17.67
2018-06-04T20:13:12.327Z,17.43
2018-06-04T20:15:43.138Z,18.57
2018-06-04T20:18:12.985Z,19.20
2018-06-04T20:20:42.999Z,20.10
2018-06-04T20:23:13.053Z,20.50
2018-06-04T20:25:42.965Z,19.97
2018-06-04T20:28:14.673Z,20.73
2018-06-04T20:30:44.714Z,20.47
2018-06-04T20:33:14.541Z,19.90
2018-06-04T20:35:44.347Z,19.13
2018-06-04T20:38:14.426Z,20.13
2018-06-04T20:40:44.549Z,19.05
2018-06-04T20:43:15.099Z,20.50
2018-06-04T20:45:45.278Z,19.90
2018-06-04T20:48:15.525Z,22.33
2018-06-04T20:50:45.101Z,23.40
2018-06-04T20:53:15.040Z,27.10
2018-06-04T20:55:44.818Z,22.20
2018-06-04T20:58:14.811Z,24.83
2018-06-04T21:00:45.151Z,24.27
2018-06-04T21:03:16.240Z,21.10
2018-06-04T21:05:46.273Z,22.03
2018-06-04T21:08:16.207Z,22.70
2018-06-04T21:10:46.109Z,21.77
2018-06-04T21:13:15.916Z,21.17
2018-06-04T21:15:46.260Z,20.88
2018-06-04T21:18:17.485Z,19.00
2018-06-04T21:20:47.416Z,18.73
2018-06-04T21:23:16.977Z,19.17
2018-06-04T21:25:47.147Z,19.90
2018-06-04T21:28:18.012Z,20.13
2018-06-04T21:30:48.123Z,20.33
2018-06-04T21:33:17.973Z,20.80
2018-06-04T21:35:48.046Z,20.13
2018-06-04T21:38:18.105Z,20.60
2018-06-04T21:40:48.105Z,19.37
2018-06-04T21:43:17.947Z,19.00
2018-06-04T21:45:47.893Z,19.20
2018-06-04T21:48:17.720Z,19.60
2018-06-04T21:50:47.581Z,19.43
2018-06-04T21:53:17.727Z,20.17
2018-06-04T21:55:47.589Z,19.30
2018-06-04T21:58:17.288Z,19.53
2018-06-04T22:00:47.811Z,22.00
2018-06-04T22:03:17.741Z,22.87
2018-06-04T22:05:47.682Z,21.50
2018-06-04T22:08:17.533Z,23.13
2018-06-04T22:10:47.399Z,23.47
2018-06-04T22:13:17.334Z,22.70
2018-06-04T22:15:47.208Z,22.87
2018-06-04T22:18:17.089Z,23.10
2018-06-04T22:20:47.066Z,24.17
2018-06-04T22:23:17.051Z,24.67
2018-06-04T22:25:47.099Z,25.37
2018-06-04T22:28:17.044Z,25.77
2018-06-04T22:30:48.724Z,25.03
2018-06-04T22:33:18.685Z,26.53
2018-06-04T22:35:48.446Z,25.60
2018-06-04T22:38:18.091Z,24.97
2018-06-04T22:40:47.908Z,25.53
2018-06-04T22:43:17.737Z,25.77
2018-06-04T22:45:47.350Z,23.20
2018-06-04T22:48:17.272Z,25.67
2018-06-04T22:50:47.408Z,25.60
2018-06-04T22:53:17.304Z,24.80
2018-06-04T22:55:47.262Z,22.73
2018-06-04T22:58:17.061Z,23.10
2018-06-04T23:00:46.817Z,25.40
2018-06-04T23:03:17.143Z,25.03
2018-06-04T23:05:46.803Z,23.47
2018-06-04T23:08:16.653Z,26.63
2018-06-04T23:10:46.428Z,28.37
2018-06-04T23:13:16.345Z,26.87
2018-06-04T23:15:46.587Z,32.07
2018-06-04T23:18:23.262Z,28.27
2018-06-04T23:20:53.247Z,32.40
2018-06-04T23:23:23.522Z,33.50
2018-06-04T23:25:53.275Z,35.43
2018-06-04T23:28:23.409Z,38.53
2018-06-04T23:30:57.376Z,41.47
2018-06-04T23:33:27.358Z,34.63
2018-06-04T23:35:57.315Z,34.93
2018-06-04T23:38:27.189Z,35.73
2018-06-04T23:40:57.088Z,33.43
2018-06-04T23:43:27.236Z,32.60
2018-06-04T23:45:56.985Z,35.23
2018-06-04T23:48:27.150Z,34.27
2018-06-04T23:50:56.941Z,38.70
2018-06-04T23:53:26.936Z,35.37
2018-06-04T23:55:56.941Z,38.43
2018-06-04T23:58:26.644Z,37.77
